Time;durP1;ratioP1;P1;durP2;ratioP2;P2;SDS_P1;SDS_P2;PMS_P1;PMS_P2;Temp;Humidity;BMP_temperature;BMP_pressure;BME280_temperature;BME280_humidity;BME280_pressure;Samples;Min_cycle;Max_cycle;Signal;HPM_P1;HPM_P2
2024/01/31 00:00:09;;;;;;;10.80;5.78;;;;;;;9.39;91.03;101098.69;332227;28;4726;-81
2024/01/31 00:00:21;;;;;;;8.77;5.13;;;;;;;9.39;90.88;101101.28;334535;28;19514;-81
2024/01/31 00:00:33;;;;;;;8.73;4.75;;;;;;;9.39;90.80;101099.53;337724;28;4674;-80
2024/01/31 00:00:45;;;;;;;8.38;4.72;;;;;;;9.36;90.32;101098.72;334248;28;18392;-82
2024/01/31 00:00:57;;;;;;;9.40;4.93;;;;;;;9.33;90.62;101099.56;336863;28;5591;-84
2024/01/31 00:01:09;;;;;;;10.65;5.25;;;;;;;9.32;90.77;101099.59;335415;28;17700;-81
2024/01/31 00:01:22;;;;;;;11.38;5.38;;;;;;;9.29;90.72;101102.19;338989;28;5833;-80
2024/01/31 00:01:36;;;;;;;11.40;5.30;;;;;;;9.28;90.99;101105.66;340242;28;4944;-81
2024/01/31 00:01:48;;;;;;;9.65;5.20;;;;;;;9.28;91.49;101105.66;337041;28;18407;-80
2024/01/31 00:02:00;;;;;;;8.88;4.80;;;;;;;9.28;91.23;101100.47;336547;28;18405;-80
2024/01/31 00:02:12;;;;;;;9.32;4.80;;;;;;;9.27;91.17;101094.41;339012;28;4535;-80
2024/01/31 00:02:24;;;;;;;8.90;4.93;;;;;;;9.29;91.42;101097.00;336612;28;4593;-80
2024/01/31 00:02:37;;;;;;;8.40;4.60;;;;;;;9.27;91.42;101096.13;338952;28;4709;-82
2024/01/31 00:02:49;;;;;;;10.50;4.65;;;;;;;9.24;90.98;101098.75;340036;28;4567;-80
2024/01/31 00:03:01;;;;;;;9.90;4.63;;;;;;;9.24;90.98;101099.63;330592;28;19373;-82
2024/01/31 00:03:13;;;;;;;9.73;5.43;;;;;;;9.24;91.40;101099.63;338600;28;4741;-80
2024/01/31 00:03:25;;;;;;;10.35;5.75;;;;;;;9.27;91.16;101098.72;335647;28;18238;-81
2024/01/31 00:03:37;;;;;;;10.05;5.22;;;;;;;9.29;91.49;101103.03;338889;28;5037;-81
2024/01/31 00:03:49;;;;;;;9.40;4.80;;;;;;;9.30;91.21;101101.34;338600;28;4719;-81
2024/01/31 00:04:02;;;;;;;9.07;4.93;;;;;;;9.19;92.16;101102.25;335651;28;19352;-82
2024/01/31 00:04:14;;;;;;;8.63;5.13;;;;;;;9.20;92.27;101103.09;339274;28;4716;-81
2024/01/31 00:04:26;;;;;;;8.50;5.07;;;;;;;9.18;92.41;101100.50;336336;28;18366;-81
2024/01/31 00:04:38;;;;;;;8.15;4.97;;;;;;;9.17;92.28;101097.91;334331;28;5091;-81
2024/01/31 00:04:51;;;;;;;8.18;4.72;;;;;;;9.19;92.31;101090.97;336726;28;5075;-80
2024/01/31 00:05:04;;;;;;;7.90;4.63;;;;;;;9.22;91.85;101095.31;338876;28;4986;-81
2024/01/31 00:05:16;;;;;;;7.80;4.55;;;;;;;9.22;91.73;101095.31;336092;28;16128;-81
2024/01/31 00:05:28;;;;;;;7.97;4.70;;;;;;;9.23;92.03;101100.47;338848;28;4534;-80
2024/01/31 00:05:40;;;;;;;7.88;4.63;;;;;;;9.23;91.74;101092.69;334697;28;5221;-80
2024/01/31 00:05:53;;;;;;;8.05;4.45;;;;;;;9.24;91.93;101101.34;338734;28;4665;-82
2024/01/31 00:06:05;;;;;;;7.93;4.57;;;;;;;9.26;91.87;101102.22;333668;28;4666;-81
2024/01/31 00:06:17;;;;;;;8.35;4.88;;;;;;;9.24;91.40;101098.75;336039;28;18130;-81
2024/01/31 00:06:30;;;;;;;8.88;5.13;;;;;;;9.22;91.44;101106.53;338790;28;4721;-80
2024/01/31 00:06:42;;;;;;;8.25;4.78;;;;;;;9.22;91.51;101101.34;336830;28;4562;-80
2024/01/31 00:06:54;;;;;;;7.90;4.47;;;;;;;9.25;91.52;101103.06;337750;28;4815;-81
2024/01/31 00:07:07;;;;;;;7.15;4.18;;;;;;;9.24;91.27;101104.81;336855;28;5358;-82
2024/01/31 00:07:19;;;;;;;7.22;4.30;;;;;;;9.25;91.13;101100.47;338617;28;5190;-84
2024/01/31 00:07:32;;;;;;;7.03;4.45;;;;;;;9.26;91.15;101097.88;338027;28;4554;-80
2024/01/31 00:07:44;;;;;;;7.28;4.68;;;;;;;9.19;90.76;101102.25;337581;28;12779;-81
2024/01/31 00:07:56;;;;;;;8.38;4.70;;;;;;;9.22;90.70;101097.91;340211;28;5857;-81
2024/01/31 00:08:08;;;;;;;9.30;4.80;;;;;;;9.23;90.94;101097.88;337442;28;18094;-81
2024/01/31 00:08:20;;;;;;;8.43;4.78;;;;;;;9.19;90.25;101096.16;339279;28;4523;-81
2024/01/31 00:08:35;;;;;;;7.22;4.47;;;;;;;9.18;90.05;101104.84;335757;28;17616;-81
2024/01/31 00:08:47;;;;;;;8.02;4.80;;;;;;;9.14;90.02;101098.78;336194;28;4694;-82
2024/01/31 00:09:00;;;;;;;9.77;4.97;;;;;;;9.15;90.20;101095.31;334224;28;4879;-83
2024/01/31 00:09:12;;;;;;;10.40;4.75;;;;;;;9.13;89.86;101099.63;337849;28;17550;-79
2024/01/31 00:09:24;;;;;;;9.80;4.60;;;;;;;9.12;90.38;101097.94;340205;28;5966;-81
2024/01/31 00:09:36;;;;;;;8.63;4.70;;;;;;;9.12;89.51;101090.16;338589;28;4683;-81
2024/01/31 00:09:48;;;;;;;8.32;4.90;;;;;;;9.12;89.82;101100.53;336273;28;18572;-82
2024/01/31 00:10:00;;;;;;;7.57;4.97;;;;;;;9.12;89.78;101097.94;336881;28;5329;-80
2024/01/31 00:10:12;;;;;;;7.90;4.82;;;;;;;9.08;89.47;101096.22;335309;28;17881;-81
2024/01/31 00:10:25;;;;;;;7.97;4.65;;;;;;;9.00;88.92;101093.63;336541;28;17307;-81
2024/01/31 00:10:37;;;;;;;8.13;4.60;;;;;;;8.96;88.78;101094.50;336341;28;13110;-82
2024/01/31 00:10:49;;;;;;;8.05;4.75;;;;;;;8.99;89.76;101098.81;338056;28;5442;-82
2024/01/31 00:11:01;;;;;;;8.30;4.80;;;;;;;8.98;89.97;101102.28;338702;28;4669;-81
2024/01/31 00:11:14;;;;;;;8.20;4.70;;;;;;;8.95;90.33;101103.19;336370;28;18396;-82
2024/01/31 00:11:30;;;;;;;8.15;4.70;;;;;;;8.95;90.51;101107.47;338540;28;4604;-81
2024/01/31 00:11:42;;;;;;;7.55;4.60;;;;;;;8.98;91.08;101107.50;334021;28;17861;-81
2024/01/31 00:11:54;;;;;;;7.32;4.28;;;;;;;9.00;91.14;101100.56;331660;28;18151;-81
2024/01/31 00:12:06;;;;;;;7.63;4.20;;;;;;;9.04;91.39;101109.22;339062;28;5377;-81
2024/01/31 00:12:18;;;;;;;9.27;4.72;;;;;;;9.04;91.35;101106.63;336035;28;17031;-81
2024/01/31 00:12:30;;;;;;;10.50;4.85;;;;;;;9.00;91.70;101100.56;339127;28;4661;-81
2024/01/31 00:12:42;;;;;;;9.52;4.75;;;;;;;8.99;91.93;101104.00;338903;28;4536;-80
2024/01/31 00:12:54;;;;;;;8.07;4.38;;;;;;;9.04;91.79;101106.63;335921;28;18345;-81
2024/01/31 00:13:07;;;;;;;7.38;4.50;;;;;;;9.04;91.89;101104.88;338913;28;4596;-81
2024/01/31 00:13:19;;;;;;;9.25;4.72;;;;;;;9.06;91.66;101103.13;336227;28;17809;-82
2024/01/31 00:13:31;;;;;;;8.88;4.90;;;;;;;9.07;91.79;101099.66;337898;28;4527;-82
2024/01/31 00:13:43;;;;;;;8.77;4.70;;;;;;;9.07;91.75;101097.06;336198;28;11786;-80
2024/01/31 00:13:56;;;;;;;7.85;4.80;;;;;;;9.10;92.06;101101.41;338999;28;5471;-82
2024/01/31 00:14:08;;;;;;;8.13;4.82;;;;;;;9.10;91.60;101096.22;336640;28;5464;-80
2024/01/31 00:14:21;;;;;;;8.38;4.85;;;;;;;9.09;91.94;101097.91;338759;28;4860;-83
2024/01/31 00:14:35;;;;;;;8.73;4.78;;;;;;;9.11;91.74;101098.78;340135;28;13674;-81
2024/01/31 00:14:47;;;;;;;10.10;5.00;;;;;;;9.12;92.13;101097.06;332236;28;17798;-84
2024/01/31 00:14:59;;;;;;;10.40;4.90;;;;;;;9.13;92.02;101102.22;337665;28;12688;-82
2024/01/31 00:15:13;;;;;;;8.05;4.38;;;;;;;9.15;91.52;101095.31;340445;28;4603;-82
2024/01/31 00:15:25;;;;;;;7.40;4.20;;;;;;;9.15;91.80;101100.50;336099;28;18067;-82
2024/01/31 00:15:37;;;;;;;8.63;4.53;;;;;;;9.17;91.65;101093.56;338676;28;5212;-84
2024/01/31 00:15:49;;;;;;;9.20;4.75;;;;;;;9.15;91.52;101097.91;336005;28;13998;-81
2024/01/31 00:16:01;;;;;;;8.70;4.88;;;;;;;9.11;91.49;101098.78;338766;28;4543;-82
2024/01/31 00:16:14;;;;;;;8.00;4.97;;;;;;;9.09;91.70;101095.31;334407;28;5266;-81
2024/01/31 00:16:26;;;;;;;8.15;5.00;;;;;;;8.97;92.95;101095.38;334545;28;17802;-82
2024/01/31 00:16:38;;;;;;;8.57;5.03;;;;;;;8.95;93.49;101091.91;336375;28;4568;-82
2024/01/31 00:16:51;;;;;;;8.20;4.70;;;;;;;8.87;93.83;101099.72;333442;28;18248;-80
2024/01/31 00:17:03;;;;;;;7.75;4.53;;;;;;;8.83;94.20;101098.00;338562;28;5090;-82
2024/01/31 00:17:15;;;;;;;8.48;4.88;;;;;;;8.89;94.25;101092.78;334829;28;18977;-81
2024/01/31 00:17:27;;;;;;;9.45;5.05;;;;;;;8.93;94.06;101097.13;332849;28;4885;-82
2024/01/31 00:17:39;;;;;;;10.90;5.15;;;;;;;8.79;93.68;101097.16;336280;28;18120;-80
2024/01/31 00:17:52;;;;;;;10.90;5.55;;;;;;;8.78;94.18;101095.41;339133;28;5493;-81
2024/01/31 00:18:04;;;;;;;10.40;5.32;;;;;;;8.79;93.81;101097.16;337412;28;12390;-80
2024/01/31 00:18:16;;;;;;;8.23;4.82;;;;;;;8.85;93.67;101098.00;338737;28;5033;-81
2024/01/31 00:18:28;;;;;;;8.60;4.97;;;;;;;8.86;93.39;101089.38;337709;28;4667;-80
2024/01/31 00:18:40;;;;;;;8.48;5.00;;;;;;;8.75;93.71;101098.03;336184;28;18243;-81
2024/01/31 00:18:53;;;;;;;9.18;5.10;;;;;;;8.77;93.65;101093.72;338670;28;5007;-82
2024/01/31 00:19:05;;;;;;;8.05;4.80;;;;;;;8.75;93.88;101092.84;330765;28;12076;-81
2024/01/31 00:19:18;;;;;;;8.18;4.82;;;;;;;8.64;93.93;101097.19;338790;28;4525;-82
2024/01/31 00:19:30;;;;;;;8.25;4.93;;;;;;;8.71;93.93;101098.91;336680;28;12036;-80
2024/01/31 00:19:42;;;;;;;8.10;5.00;;;;;;;8.74;94.00;101098.88;338409;28;5393;-81
2024/01/31 00:19:54;;;;;;;7.85;4.70;;;;;;;8.83;93.70;101091.94;338835;28;5812;-81
2024/01/31 00:20:07;;;;;;;10.02;4.88;;;;;;;8.84;93.45;101093.69;336141;28;18177;-81
2024/01/31 00:20:19;;;;;;;10.10;4.85;;;;;;;8.86;93.35;101098.00;339114;28;4682;-80
2024/01/31 00:20:31;;;;;;;9.63;4.78;;;;;;;8.92;92.87;101091.94;336329;28;17757;-82
2024/01/31 00:20:43;;;;;;;8.98;4.90;;;;;;;8.94;93.13;101095.41;340114;28;5356;-81
2024/01/31 00:20:55;;;;;;;7.82;4.68;;;;;;;8.95;92.44;101097.09;335598;28;11746;-82
2024/01/31 00:21:07;;;;;;;8.88;4.63;;;;;;;8.97;92.14;101087.59;337772;28;4709;-84
2024/01/31 00:21:19;;;;;;;10.38;4.85;;;;;;;9.01;91.93;101089.31;338471;28;5893;-80
2024/01/31 00:22:14;;;;;;;9.63;4.97;;;;;;;8.99;91.28;101091.03;333075;28;17696;-82
2024/01/31 00:22:26;;;;;;;8.13;4.57;;;;;;;9.03;91.48;101090.16;331528;28;19265;-80
2024/01/31 00:22:38;;;;;;;9.02;4.57;;;;;;;9.04;91.46;101091.91;335734;28;4896;-83
2024/01/31 00:22:51;;;;;;;9.27;4.70;;;;;;;8.99;90.94;101086.75;334269;28;12771;-81
2024/01/31 00:23:03;;;;;;;8.50;4.93;;;;;;;9.00;91.21;101090.19;336633;28;4765;-81
2024/01/31 00:23:15;;;;;;;6.85;4.38;;;;;;;9.04;91.13;101089.31;337520;28;5353;-82
2024/01/31 00:23:27;;;;;;;6.78;4.30;;;;;;;9.06;91.26;101090.16;333603;28;13371;-81
2024/01/31 00:23:39;;;;;;;10.13;4.80;;;;;;;9.06;91.33;101090.16;331232;28;4758;-83
2024/01/31 00:23:51;;;;;;;11.18;5.10;;;;;;;9.06;91.26;101089.31;336471;28;5138;-82
2024/01/31 00:24:03;;;;;;;10.07;4.70;;;;;;;9.04;91.40;101091.91;334386;28;18427;-81
2024/01/31 00:24:15;;;;;;;8.50;5.00;;;;;;;9.05;91.39;101088.44;337449;28;4642;-81
2024/01/31 00:24:27;;;;;;;9.10;4.90;;;;;;;8.99;91.48;101084.16;334764;28;16455;-83
2024/01/31 00:24:40;;;;;;;9.05;4.65;;;;;;;9.00;91.84;101095.38;336905;28;5443;-82
2024/01/31 00:24:52;;;;;;;8.23;4.45;;;;;;;9.03;91.78;101084.13;334210;28;18590;-80
2024/01/31 00:25:05;;;;;;;9.57;4.85;;;;;;;9.05;91.71;101087.56;335366;28;17930;-81
2024/01/31 00:25:17;;;;;;;11.05;5.05;;;;;;;9.05;91.59;101093.63;336364;28;10577;-81
2024/01/31 00:25:29;;;;;;;9.38;5.10;;;;;;;9.08;91.51;101087.56;337750;28;4538;-81
2024/01/31 00:25:41;;;;;;;8.80;5.03;;;;;;;9.07;91.25;101085.84;337664;28;4556;-81
2024/01/31 00:25:53;;;;;;;8.63;4.65;;;;;;;9.07;91.43;101091.88;334084;28;18092;-83
2024/01/31 00:26:05;;;;;;;10.10;4.38;;;;;;;9.07;91.41;101086.69;337580;28;4546;-81
2024/01/31 00:26:17;;;;;;;9.88;4.35;;;;;;;9.06;91.63;101092.75;338036;28;18194;-81
2024/01/31 00:26:29;;;;;;;8.98;4.20;;;;;;;9.12;91.53;101095.34;331553;28;18113;-81
2024/01/31 00:26:41;;;;;;;8.55;4.57;;;;;;;9.16;91.15;101094.44;337622;28;5936;-81
2024/01/31 00:26:53;;;;;;;9.63;4.68;;;;;;;9.19;91.21;101096.16;335056;28;18212;-81
2024/01/31 00:27:05;;;;;;;8.98;4.57;;;;;;;9.15;91.12;101086.66;337169;28;4918;-81
2024/01/31 00:27:17;;;;;;;8.52;4.40;;;;;;;9.15;91.03;101092.72;337374;28;4875;-83
2024/01/31 00:27:29;;;;;;;8.32;4.30;;;;;;;9.14;91.14;101092.75;333205;29;18197;-81
2024/01/31 00:27:41;;;;;;;7.57;4.28;;;;;;;9.15;90.98;101095.31;335984;29;5368;-82
2024/01/31 00:27:53;;;;;;;7.32;4.30;;;;;;;9.15;91.16;101084.94;330094;28;17338;-82
2024/01/31 00:28:05;;;;;;;7.63;4.50;;;;;;;9.18;91.08;101095.31;337493;28;4568;-81
2024/01/31 00:28:17;;;;;;;7.57;4.65;;;;;;;9.17;90.94;101093.56;335712;28;8100;-80
2024/01/31 00:28:30;;;;;;;7.63;4.43;;;;;;;9.18;90.61;101094.44;332608;28;18109;-81
2024/01/31 00:28:42;;;;;;;7.15;4.32;;;;;;;9.19;90.60;101089.28;338452;28;4534;-81
2024/01/31 00:28:54;;;;;;;6.72;4.38;;;;;;;9.27;90.53;101093.53;337019;28;18043;-81
2024/01/31 00:29:06;;;;;;;7.40;4.65;;;;;;;9.26;90.21;101092.69;338854;28;5281;-81
2024/01/31 00:29:18;;;;;;;9.10;4.95;;;;;;;9.28;90.62;101087.50;335080;28;4709;-80
2024/01/31 00:29:30;;;;;;;10.20;4.85;;;;;;;9.26;91.29;101091.84;338823;28;4527;-81
2024/01/31 00:29:42;;;;;;;10.50;5.03;;;;;;;9.18;91.60;101087.53;338990;28;4744;-80
2024/01/31 00:29:54;;;;;;;9.32;4.70;;;;;;;9.21;91.29;101091.84;337618;28;18836;-82
2024/01/31 00:30:09;;;;;;;9.32;4.80;;;;;;;9.23;91.45;101089.25;339726;28;4528;-80
2024/01/31 00:30:21;;;;;;;8.70;4.80;;;;;;;9.21;91.29;101089.22;334651;28;18913;-81
2024/01/31 00:30:33;;;;;;;8.60;4.72;;;;;;;9.10;91.23;101086.69;337007;28;4602;-80
2024/01/31 00:30:45;;;;;;;7.82;4.55;;;;;;;9.04;91.55;101091.91;334906;28;5361;-80
2024/01/31 00:30:57;;;;;;;7.03;4.47;;;;;;;9.12;91.54;101090.16;339548;28;4744;-83
2024/01/31 00:31:11;;;;;;;6.63;4.38;;;;;;;9.12;91.30;101095.34;336218;28;4722;-81
2024/01/31 00:31:23;;;;;;;6.32;4.18;;;;;;;9.12;91.33;101095.34;338715;28;5295;-81
2024/01/31 00:31:35;;;;;;;6.75;4.15;;;;;;;9.00;91.46;101096.22;335688;28;19236;-81
2024/01/31 00:31:47;;;;;;;6.80;4.25;;;;;;;9.01;91.76;101091.91;338313;28;4574;-83
2024/01/31 00:31:59;;;;;;;7.85;4.38;;;;;;;9.03;91.92;101097.94;337509;28;16673;-80
2024/01/31 00:32:11;;;;;;;7.43;4.18;;;;;;;8.99;91.87;101091.03;339821;28;5328;-82
2024/01/31 00:32:23;;;;;;;6.50;3.63;;;;;;;8.99;91.75;101098.81;338996;28;4657;-82
2024/01/31 00:32:35;;;;;;;7.65;3.92;;;;;;;8.96;91.98;101098.84;335898;28;19124;-82
2024/01/31 00:32:47;;;;;;;10.13;4.18;;;;;;;8.97;92.00;101097.97;338337;28;4630;-81
2024/01/31 00:33:00;;;;;;;9.65;4.32;;;;;;;9.04;91.81;101099.69;335429;28;18258;-81
2024/01/31 00:33:12;;;;;;;9.75;4.40;;;;;;;9.03;91.82;101094.50;338959;28;5548;-82
2024/01/31 00:33:24;;;;;;;8.75;4.30;;;;;;;9.06;91.38;101097.94;338525;28;13056;-82
2024/01/31 00:33:36;;;;;;;9.40;4.38;;;;;;;9.09;91.53;101090.13;331257;28;18551;-83
2024/01/31 00:33:48;;;;;;;8.63;4.35;;;;;;;9.09;91.15;101092.72;333930;28;5108;-82
2024/01/31 00:34:00;;;;;;;6.50;4.07;;;;;;;9.07;90.66;101091.88;334689;28;13239;-82
2024/01/31 00:34:12;;;;;;;8.13;4.28;;;;;;;9.12;90.74;101095.34;336393;28;4612;-81
2024/01/31 00:34:24;;;;;;;8.60;4.35;;;;;;;9.17;90.74;101092.72;336584;28;5494;-81
2024/01/31 00:34:36;;;;;;;8.50;4.32;;;;;;;9.18;90.81;101091.84;335845;28;19425;-81
2024/01/31 00:34:49;;;;;;;8.85;4.32;;;;;;;9.19;90.70;101097.06;338865;28;4614;-81
2024/01/31 00:35:01;;;;;;;9.18;4.45;;;;;;;9.23;90.57;101095.28;331927;28;18157;-80
2024/01/31 00:35:13;;;;;;;8.70;4.10;;;;;;;9.27;90.18;101099.59;340618;28;4851;-81
2024/01/31 00:35:25;;;;;;;9.00;4.10;;;;;;;9.30;90.23;101093.53;337400;28;16563;-80
2024/01/31 00:35:37;;;;;;;9.02;4.13;;;;;;;9.33;90.08;101093.50;338632;28;5344;-81
2024/01/31 00:35:49;;;;;;;8.15;4.20;;;;;;;9.35;90.11;101096.97;337616;28;4953;-83
2024/01/31 00:36:01;;;;;;;7.35;4.13;;;;;;;9.35;89.85;101097.81;333010;28;18972;-81
2024/01/31 00:36:15;;;;;;;8.13;4.20;;;;;;;9.37;89.32;101092.63;335375;28;4665;-82
2024/01/31 00:36:27;;;;;;;7.55;4.15;;;;;;;9.36;89.71;101090.94;332087;28;18315;-81
2024/01/31 00:36:39;;;;;;;7.40;4.30;;;;;;;9.33;89.91;101093.50;331535;28;4586;-82
2024/01/31 00:36:51;;;;;;;7.50;4.20;;;;;;;9.34;89.60;101095.25;333776;28;17969;-81
2024/01/31 00:37:03;;;;;;;7.40;4.13;;;;;;;9.34;89.89;101095.25;337143;28;4794;-81
2024/01/31 00:37:15;;;;;;;8.02;4.40;;;;;;;9.33;89.88;101096.13;335390;28;5124;-80
2024/01/31 00:37:28;;;;;;;11.70;4.38;;;;;;;9.30;89.74;101093.53;337581;28;4651;-82
2024/01/31 00:37:40;;;;;;;11.80;4.50;;;;;;;9.28;89.51;101100.47;338168;28;4784;-81
2024/01/31 00:37:53;;;;;;;10.00;4.72;;;;;;;9.30;89.85;101094.41;336150;28;19109;-81
2024/01/31 00:38:05;;;;;;;8.13;4.63;;;;;;;9.28;89.91;101090.09;333839;28;5050;-81
2024/01/31 00:38:17;;;;;;;8.95;4.50;;;;;;;9.27;89.98;101094.41;335301;28;18402;-81
2024/01/31 00:38:29;;;;;;;9.15;4.55;;;;;;;9.30;89.95;101093.53;337804;28;5084;-81
2024/01/31 00:38:41;;;;;;;10.25;4.68;;;;;;;9.32;89.82;101097.00;335196;28;13263;-80
2024/01/31 00:38:53;;;;;;;10.68;4.78;;;;;;;9.31;89.61;101090.06;338413;28;4627;-81
2024/01/31 00:39:05;;;;;;;9.85;4.60;;;;;;;9.32;89.77;101097.00;338822;28;4795;-80
2024/01/31 00:39:20;;;;;;;8.82;4.63;;;;;;;9.34;89.91;101085.72;336392;28;17856;-82
2024/01/31 00:39:32;;;;;;;9.27;4.63;;;;;;;9.33;89.58;101093.50;334977;28;16111;-81
2024/01/31 00:39:48;;;;;;;9.20;4.80;;;;;;;9.35;89.85;101094.38;335611;28;18253;-81
2024/01/31 00:40:00;;;;;;;9.57;4.85;;;;;;;9.34;89.70;101090.06;335308;28;18789;-81
2024/01/31 00:40:12;;;;;;;9.20;4.43;;;;;;;9.35;89.56;101089.19;336326;28;13287;-82
2024/01/31 00:40:24;;;;;;;9.88;4.93;;;;;;;9.36;89.67;101090.94;338529;28;5341;-81
2024/01/31 00:40:36;;;;;;;9.43;5.13;;;;;;;9.35;89.54;101086.59;335913;28;12899;-80
2024/01/31 00:40:48;;;;;;;9.70;5.00;;;;;;;9.37;89.62;101100.41;338503;28;4664;-82
2024/01/31 00:41:00;;;;;;;8.77;4.60;;;;;;;9.39;89.92;101094.34;333934;28;4564;-81
2024/01/31 00:41:14;;;;;;;8.57;4.30;;;;;;;9.43;89.71;101096.94;336133;28;18230;-82
2024/01/31 00:41:26;;;;;;;8.02;4.20;;;;;;;9.39;89.73;101096.09;338859;28;5265;-82
2024/01/31 00:41:38;;;;;;;7.70;4.28;;;;;;;9.42;89.41;101088.28;336187;28;18195;-81
2024/01/31 00:41:50;;;;;;;7.75;4.25;;;;;;;9.45;89.54;101097.78;338915;28;5122;-81
2024/01/31 00:42:02;;;;;;;7.68;4.57;;;;;;;9.43;89.29;101095.19;336690;28;18049;-81
2024/01/31 00:42:15;;;;;;;7.45;4.65;;;;;;;9.45;89.56;101098.66;340421;28;4737;-81
2024/01/31 00:42:27;;;;;;;7.93;4.70;;;;;;;9.45;89.06;101093.47;340227;28;4659;-81
2024/01/31 00:42:39;;;;;;;8.15;4.50;;;;;;;9.44;89.06;101096.94;337428;28;16789;-81
2024/01/31 00:42:51;;;;;;;8.32;4.82;;;;;;;9.42;89.37;101095.19;340533;28;4587;-81
2024/01/31 00:43:03;;;;;;;9.88;4.53;;;;;;;9.41;89.42;101091.75;335496;28;18027;-80
2024/01/31 00:43:15;;;;;;;10.52;4.63;;;;;;;9.37;89.36;101100.41;338612;28;5112;-81
2024/01/31 00:43:27;;;;;;;10.65;5.03;;;;;;;9.39;89.26;101093.50;339085;28;4618;-82
2024/01/31 00:43:39;;;;;;;8.82;5.20;;;;;;;9.37;89.21;101090.91;335815;28;19306;-81
2024/01/31 00:43:51;;;;;;;8.82;5.15;;;;;;;9.40;89.25;101090.03;334752;28;4587;-82
2024/01/31 00:44:04;;;;;;;9.13;5.00;;;;;;;9.43;89.54;101095.19;336883;28;18286;-82
2024/01/31 00:44:16;;;;;;;8.07;4.78;;;;;;;9.43;89.39;101095.19;340120;28;5329;-83
2024/01/31 00:44:28;;;;;;;9.07;4.90;;;;;;;9.42;89.50;101090.91;337527;28;12756;-80
2024/01/31 00:44:42;;;;;;;11.02;5.47;;;;;;;9.41;89.20;101091.75;339719;28;4518;-81
2024/01/31 00:44:54;;;;;;;10.10;5.20;;;;;;;9.35;89.63;101096.97;336259;28;18141;-82
2024/01/31 00:45:06;;;;;;;8.57;4.82;;;;;;;9.37;89.49;101095.22;338372;28;4718;-81
2024/01/31 00:45:18;;;;;;;8.30;4.78;;;;;;;9.39;89.58;101088.28;336179;28;5064;-81
2024/01/31 00:45:30;;;;;;;8.98;5.15;;;;;;;9.41;89.33;101089.16;332986;28;4907;-81
2024/01/31 00:45:42;;;;;;;9.05;5.40;;;;;;;9.41;89.04;101091.75;338049;28;5868;-81
2024/01/31 00:45:54;;;;;;;8.68;5.18;;;;;;;9.41;89.28;101096.94;335793;28;18203;-82
2024/01/31 00:46:06;;;;;;;6.85;4.30;;;;;;;9.39;89.15;101093.50;337484;28;4565;-81
2024/01/31 00:46:19;;;;;;;6.32;4.20;;;;;;;9.37;89.00;101090.91;334688;28;19349;-81
2024/01/31 00:46:31;;;;;;;8.23;4.47;;;;;;;9.40;89.29;101090.91;337709;28;4549;-82
2024/01/31 00:46:46;;;;;;;8.35;4.50;;;;;;;9.44;89.13;101089.16;337790;28;4541;-81
2024/01/31 00:46:58;;;;;;;7.95;4.68;;;;;;;9.47;89.04;101094.31;334695;28;18377;-82
2024/01/31 00:47:10;;;;;;;8.73;4.82;;;;;;;9.48;88.61;101092.59;332840;28;16237;-81
2024/01/31 00:47:23;;;;;;;8.27;4.88;;;;;;;9.45;88.78;101093.47;337705;28;4543;-81
2024/01/31 00:47:35;;;;;;;7.17;4.53;;;;;;;9.49;88.71;101095.16;334862;28;17794;-80
2024/01/31 00:47:48;;;;;;;7.97;4.70;;;;;;;9.50;88.81;101086.53;335831;28;4584;-82
2024/01/31 00:48:00;;;;;;;9.38;4.75;;;;;;;9.53;88.81;101096.88;333579;28;18255;-82
2024/01/31 00:48:12;;;;;;;9.45;4.85;;;;;;;9.55;88.35;101091.69;336005;28;5245;-81
2024/01/31 00:48:24;;;;;;;8.95;4.68;;;;;;;9.55;88.86;101087.34;333001;28;5239;-81
2024/01/31 00:48:36;;;;;;;8.18;4.55;;;;;;;9.56;88.33;101091.69;335076;28;18263;-81
2024/01/31 00:48:48;;;;;;;7.63;4.47;;;;;;;9.57;88.45;101092.53;338308;28;4857;-82
2024/01/31 00:49:04;;;;;;;7.18;4.45;;;;;;;9.58;88.20;101087.34;334465;28;16317;-82
2024/01/31 00:49:17;;;;;;;9.57;4.80;;;;;;;9.56;88.34;101089.09;334737;28;17131;-81
2024/01/31 00:49:34;;;;;;;8.10;4.90;;;;;;;9.58;88.21;101087.34;336584;28;17627;-81
2024/01/31 00:49:46;;;;;;;8.02;4.70;;;;;;;9.59;87.98;101088.19;330418;28;17156;-82
2024/01/31 00:49:59;;;;;;;8.18;4.55;;;;;;;9.56;88.28;101086.50;339348;28;5641;-82
2024/01/31 00:50:12;;;;;;;8.60;4.78;;;;;;;9.55;88.29;101087.34;335863;28;18413;-81
2024/01/31 00:50:24;;;;;;;8.83;4.80;;;;;;;9.55;88.17;101089.94;333280;28;4666;-82
2024/01/31 00:50:36;;;;;;;8.63;4.68;;;;;;;9.54;88.36;101089.97;336676;28;18144;-83
2024/01/31 00:50:48;;;;;;;9.25;4.93;;;;;;;9.54;88.20;101083.03;339500;28;5777;-83
2024/01/31 00:51:00;;;;;;;10.32;4.97;;;;;;;9.54;88.37;101085.63;339944;28;16582;-82
2024/01/31 00:51:12;;;;;;;11.00;4.75;;;;;;;9.56;88.30;101085.63;337778;28;18260;-82
2024/01/31 00:51:25;;;;;;;11.07;4.78;;;;;;;9.51;88.08;101088.22;335231;28;4675;-82
2024/01/31 00:51:36;;;;;;;10.63;4.80;;;;;;;9.53;88.10;101089.09;336472;28;18115;-82
2024/01/31 00:51:48;;;;;;;9.10;4.90;;;;;;;9.57;88.34;101087.34;339555;28;4512;-84
2024/01/31 00:52:00;;;;;;;8.45;4.93;;;;;;;9.58;88.21;101089.09;337234;28;5372;-81
2024/01/31 00:52:13;;;;;;;9.48;4.65;;;;;;;9.60;87.96;101093.38;338002;28;17484;-82
2024/01/31 00:52:25;;;;;;;13.27;4.65;;;;;;;9.59;88.01;101090.78;338566;28;4766;-85
2024/01/31 00:52:37;;;;;;;12.73;4.65;;;;;;;9.59;88.11;101085.59;329002;28;18669;-81
2024/01/31 00:52:49;;;;;;;10.70;4.55;;;;;;;9.62;87.66;101084.72;339034;28;4858;-82
2024/01/31 00:53:01;;;;;;;9.35;4.68;;;;;;;9.62;87.64;101085.59;333801;28;18253;-80
2024/01/31 00:53:13;;;;;;;11.45;4.80;;;;;;;9.58;87.79;101086.50;340354;28;4663;-81
2024/01/31 00:53:25;;;;;;;11.15;4.72;;;;;;;9.57;87.67;101087.34;340083;28;4577;-81
2024/01/31 00:53:38;;;;;;;8.40;4.43;;;;;;;9.57;87.83;101082.16;337478;28;18183;-82
2024/01/31 00:53:50;;;;;;;7.70;4.30;;;;;;;9.59;87.78;101086.47;339389;28;4639;-82
2024/01/31 00:54:02;;;;;;;9.00;4.43;;;;;;;9.61;87.97;101089.06;336457;28;15433;-81
2024/01/31 00:54:14;;;;;;;10.40;4.72;;;;;;;9.62;87.93;101088.19;335567;28;4620;-83
2024/01/31 00:54:26;;;;;;;10.20;4.72;;;;;;;9.61;87.56;101089.06;340090;28;4882;-81
2024/01/31 00:54:38;;;;;;;9.73;4.93;;;;;;;9.57;87.52;101083.00;335610;28;18121;-85
2024/01/31 00:54:50;;;;;;;8.45;4.75;;;;;;;9.57;87.76;101083.00;338894;28;5033;-82
2024/01/31 00:55:03;;;;;;;9.05;4.53;;;;;;;9.55;88.02;101084.75;336341;28;18627;-83
2024/01/31 00:55:15;;;;;;;11.20;4.40;;;;;;;9.55;87.96;101095.13;340091;28;5206;-82
2024/01/31 00:55:27;;;;;;;9.90;4.13;;;;;;;9.52;87.89;101089.97;336735;28;18565;-83
2024/01/31 00:55:39;;;;;;;8.35;4.32;;;;;;;9.54;88.06;101083.03;335294;28;4651;-84
2024/01/31 00:55:51;;;;;;;8.57;4.45;;;;;;;9.54;88.12;101088.22;339676;28;12364;-81
2024/01/31 00:56:04;;;;;;;8.32;4.35;;;;;;;9.51;88.26;101093.44;335129;28;19226;-81
2024/01/31 00:56:16;;;;;;;6.88;4.35;;;;;;;9.52;88.40;101095.16;338898;28;4628;-82
2024/01/31 00:56:28;;;;;;;8.07;4.32;;;;;;;9.52;88.26;101089.13;334612;28;18425;-83
2024/01/31 00:56:40;;;;;;;9.77;4.70;;;;;;;9.53;88.02;101090.81;337305;28;5227;-83
2024/01/31 00:56:52;;;;;;;9.70;4.65;;;;;;;9.51;88.23;101093.44;335776;28;18150;-81
2024/01/31 00:57:05;;;;;;;7.97;4.40;;;;;;;9.51;88.17;101093.44;337046;28;15041;-83
2024/01/31 00:57:17;;;;;;;7.70;4.20;;;;;;;9.52;88.58;101095.16;332874;28;4661;-82
2024/01/31 00:57:29;;;;;;;8.85;4.47;;;;;;;9.53;88.31;101091.69;333437;29;18390;-82
2024/01/31 00:57:41;;;;;;;9.32;4.55;;;;;;;9.52;88.05;101091.72;336436;29;4517;-82
2024/01/31 00:57:54;;;;;;;8.88;4.32;;;;;;;9.52;88.12;101089.13;334473;28;16774;-80
2024/01/31 00:58:06;;;;;;;7.88;4.38;;;;;;;9.55;88.34;101094.28;338400;28;4729;-82
2024/01/31 00:58:18;;;;;;;7.53;4.28;;;;;;;9.54;88.12;101093.44;336536;28;14014;-81
2024/01/31 00:58:32;;;;;;;7.53;4.15;;;;;;;9.54;88.26;101090.81;339030;28;4608;-82
2024/01/31 00:58:44;;;;;;;7.43;4.57;;;;;;;9.57;88.04;101092.53;335047;28;18073;-84
2024/01/31 00:58:56;;;;;;;8.48;4.68;;;;;;;9.60;87.99;101100.31;337461;28;17405;-83
2024/01/31 00:59:08;;;;;;;8.98;4.75;;;;;;;9.64;87.79;101095.94;340053;28;4540;-82
2024/01/31 00:59:20;;;;;;;7.78;4.30;;;;;;;9.64;87.78;101095.94;336948;28;18815;-82
2024/01/31 00:59:32;;;;;;;7.18;4.22;;;;;;;9.66;87.50;101092.50;339686;28;6213;-82
2024/01/31 00:59:44;;;;;;;7.10;4.22;;;;;;;9.68;87.50;101095.06;337711;28;17952;-83